Accueil
METAR-TAF:

METAR-TAF

Aéroports :

Ghadamès, Libye

latitude: 30-08N, longitude: 009-30E, altitude: 346 m

METAR: absent

Heure: 04:55 (02:55 UTC)

Prévision

Le bulletin a été fait il y a 3 heures et 55 minutes, à 23:00 UTC
Prévision valable du 27 à 00 UTC au 27 à 24 UTC
Vent 10 kt de est/nord-est
Visibilité: 8000 m

TAF: HLTD 262300Z 2700/2724 06010KT 8000 NSC

Observations et prévisions météorologiques de plus de 4000 aéroports (messages METAR et TAF).

Les stations disponibles sont représentées par des disques jaunes et rouges sur la carte.

Passer la souris dessus pour voir le nom de la station.

Cliquer dessus pour voir les observations et prévisions météorologiques.

Pour changer de carte: cliquez sur les boutons verts avec une croix noire pour zoomer, sur le bouton vert avec un tiret pour effectuer un zoom arrière, ou sur les flèches vertes pour les cartes adjacentes.


METAR-TAF: